createdAt,value
2024-01-07T00:00:36.698Z,100564.03
2024-01-07T00:03:25.795Z,100568.38
2024-01-07T00:05:54.766Z,100564.88
2024-01-07T00:08:23.949Z,100572.47
2024-01-07T00:10:54.698Z,100561.28
2024-01-07T00:13:25.308Z,100569.97
2024-01-07T00:15:55.076Z,100569.16
2024-01-07T00:18:25.584Z,100570.09
2024-01-07T00:20:54.702Z,100575.97
2024-01-07T00:23:24.237Z,100570.84
2024-01-07T00:25:53.105Z,100574.22
2024-01-07T00:28:22.251Z,100573.38
2024-01-07T00:30:52.567Z,100575.16
2024-01-07T00:33:22.029Z,100578.72
2024-01-07T00:35:50.902Z,100576.94
2024-01-07T00:38:20.514Z,100589.00
2024-01-07T00:40:49.787Z,100589.81
2024-01-07T00:43:19.611Z,100597.47
2024-01-07T00:45:48.537Z,100592.28
2024-01-07T00:48:19.191Z,100586.28
2024-01-07T00:50:48.583Z,100584.59
2024-01-07T00:53:17.749Z,100606.03
2024-01-07T00:55:46.764Z,100599.28
2024-01-07T00:58:15.900Z,100598.38
2024-01-07T01:00:44.885Z,100594.06
2024-01-07T01:03:14.199Z,100605.25
2024-01-07T01:05:44.724Z,100607.03
2024-01-07T01:08:13.942Z,100602.69
2024-01-07T01:10:42.668Z,100611.25
2024-01-07T01:13:12.156Z,100606.03
2024-01-07T01:15:40.973Z,100610.28
2024-01-07T01:18:10.146Z,100611.16
2024-01-07T01:20:39.050Z,100600.09
2024-01-07T01:23:09.501Z,100586.38
2024-01-07T01:25:40.956Z,100609.50
2024-01-07T01:28:10.188Z,100609.47
2024-01-07T01:30:39.103Z,100611.13
2024-01-07T01:33:08.257Z,100610.31
2024-01-07T01:35:37.180Z,100611.22
2024-01-07T01:38:07.969Z,100603.50
2024-01-07T01:40:37.009Z,100595.91
2024-01-07T01:43:06.566Z,100600.94
2024-01-07T01:45:35.483Z,100601.84
2024-01-07T01:48:04.979Z,100609.59
2024-01-07T01:50:34.135Z,100598.47
2024-01-07T01:53:03.460Z,100610.34
2024-01-07T01:55:34.609Z,100588.06
2024-01-07T01:58:06.255Z,100600.03
2024-01-07T02:00:35.369Z,100591.47
2024-01-07T02:03:04.793Z,100591.53
2024-01-07T02:05:34.081Z,100594.88
2024-01-07T02:08:03.525Z,100596.66
2024-01-07T02:10:35.921Z,100594.81
2024-01-07T02:13:05.884Z,100591.47
2024-01-07T02:15:35.799Z,100585.41
2024-01-07T02:18:05.565Z,100592.19
2024-01-07T02:20:34.454Z,100574.25
2024-01-07T02:23:03.753Z,100592.19
2024-01-07T02:25:38.744Z,100590.59
2024-01-07T02:28:08.464Z,100594.00
2024-01-07T02:30:37.368Z,100591.44
2024-01-07T02:33:07.307Z,100588.81
2024-01-07T02:35:36.129Z,100595.63
2024-01-07T02:38:05.594Z,100590.41
2024-01-07T02:40:34.413Z,100586.13
2024-01-07T02:43:05.297Z,100580.09
2024-01-07T02:45:34.195Z,100588.72
2024-01-07T02:48:04.885Z,100586.13
2024-01-07T02:50:34.543Z,100592.09
2024-01-07T02:53:03.639Z,100587.81
2024-01-07T02:55:32.534Z,100582.72
2024-01-07T02:58:01.670Z,100583.59
2024-01-07T03:00:31.967Z,100587.00
2024-01-07T03:03:01.211Z,100585.25
2024-01-07T03:05:33.824Z,100593.06
2024-01-07T03:08:03.121Z,100592.22
2024-01-07T03:10:31.877Z,100595.63
2024-01-07T03:13:01.021Z,100600.78
2024-01-07T03:15:31.402Z,100582.88
2024-01-07T03:18:00.499Z,100588.91
2024-01-07T03:20:29.484Z,100598.38
2024-01-07T03:22:59.204Z,100595.78
2024-01-07T03:25:28.037Z,100595.78
2024-01-07T03:27:57.212Z,100594.97
2024-01-07T03:30:26.345Z,100601.84
2024-01-07T03:32:57.063Z,100600.97
2024-01-07T03:35:25.958Z,100600.97
2024-01-07T03:37:55.141Z,100600.19
2024-01-07T03:40:24.076Z,100595.91
2024-01-07T03:42:53.324Z,100605.34
2024-01-07T03:45:21.415Z,100596.72
2024-01-07T03:47:50.752Z,100606.19
2024-01-07T03:50:21.067Z,100606.19
2024-01-07T03:52:50.199Z,100607.09
2024-01-07T03:55:19.037Z,100611.44
2024-01-07T03:57:48.232Z,100613.13
2024-01-07T04:00:17.571Z,100619.94
2024-01-07T04:02:46.800Z,100611.41
2024-01-07T04:05:16.437Z,100618.22
2024-01-07T04:07:46.910Z,100612.22
2024-01-07T04:10:15.891Z,100603.75
2024-01-07T04:12:45.538Z,100611.41
2024-01-07T04:15:14.702Z,100609.66
2024-01-07T04:17:43.969Z,100621.66
2024-01-07T04:20:16.245Z,100607.94
2024-01-07T04:22:46.697Z,100619.09
2024-01-07T04:25:15.674Z,100613.09
2024-01-07T04:27:44.739Z,100610.53
2024-01-07T04:30:14.364Z,100612.22
2024-01-07T04:32:43.607Z,100611.38
2024-01-07T04:35:12.379Z,100605.38
2024-01-07T04:37:41.466Z,100613.13
2024-01-07T04:40:13.791Z,100618.22
2024-01-07T04:42:42.939Z,100615.69
2024-01-07T04:45:11.853Z,100615.69
2024-01-07T04:47:40.970Z,100611.44
2024-01-07T04:50:10.600Z,100617.41
2024-01-07T04:52:39.615Z,100623.41
2024-01-07T04:55:10.936Z,100614.03
2024-01-07T04:57:41.420Z,100620.84
2024-01-07T05:00:11.859Z,100627.69
2024-01-07T05:02:41.216Z,100624.25
2024-01-07T05:05:11.234Z,100628.53
2024-01-07T05:07:40.559Z,100622.56
2024-01-07T05:10:10.387Z,100621.72
2024-01-07T05:12:41.048Z,100624.28
2024-01-07T05:15:11.374Z,100632.84
2024-01-07T05:17:40.564Z,100641.44
2024-01-07T05:20:11.357Z,100631.16
2024-01-07T05:22:40.587Z,100630.31
2024-01-07T05:25:10.403Z,100644.00
2024-01-07T05:27:41.060Z,100644.84
2024-01-07T05:30:10.495Z,100644.84
2024-01-07T05:32:39.748Z,100639.72
2024-01-07T05:35:09.812Z,100643.13
2024-01-07T05:37:38.954Z,100644.84
2024-01-07T05:40:09.861Z,100649.13
2024-01-07T05:42:40.457Z,100633.75
2024-01-07T05:45:10.173Z,100643.16
2024-01-07T05:47:39.388Z,100660.25
2024-01-07T05:50:08.701Z,100652.59
2024-01-07T05:52:37.704Z,100659.41
2024-01-07T05:55:08.508Z,100651.69
2024-01-07T05:57:37.575Z,100642.28
2024-01-07T06:00:09.884Z,100647.44
2024-01-07T06:02:41.891Z,100644.88
2024-01-07T06:05:11.363Z,100644.91
2024-01-07T06:07:40.813Z,100652.56
2024-01-07T06:10:11.009Z,100649.97
2024-01-07T06:12:40.169Z,100654.28
2024-01-07T06:15:11.502Z,100652.59
2024-01-07T06:17:40.598Z,100650.03
2024-01-07T06:20:10.750Z,100650.88
2024-01-07T06:22:39.857Z,100647.44
2024-01-07T06:25:11.476Z,100652.59
2024-01-07T06:27:42.510Z,100657.72
2024-01-07T06:30:14.754Z,100666.31
2024-01-07T06:32:43.884Z,100673.19
2024-01-07T06:35:12.638Z,100682.59
2024-01-07T06:37:41.683Z,100672.31
2024-01-07T06:40:12.872Z,100684.28
2024-01-07T06:42:43.196Z,100672.28
2024-01-07T06:45:13.626Z,100685.97
2024-01-07T06:47:43.000Z,100680.00
2024-01-07T06:50:12.740Z,100679.13
2024-01-07T06:52:41.931Z,100685.13
2024-01-07T06:55:11.191Z,100691.13
2024-01-07T06:57:40.526Z,100686.84
2024-01-07T07:00:10.569Z,100698.84
2024-01-07T07:02:42.279Z,100698.84
2024-01-07T07:05:11.389Z,100705.69
2024-01-07T07:07:41.282Z,100697.94
2024-01-07T07:10:11.252Z,100703.09
2024-01-07T07:12:40.535Z,100709.94
2024-01-07T07:15:10.836Z,100705.66
2024-01-07T07:17:41.751Z,100715.09
2024-01-07T07:20:12.014Z,100712.53
2024-01-07T07:22:41.488Z,100711.66
2024-01-07T07:25:11.056Z,100707.41
2024-01-07T07:27:40.155Z,100703.97
2024-01-07T07:30:10.065Z,100710.81
2024-01-07T07:32:43.558Z,100711.66
2024-01-07T07:35:12.534Z,100715.94
2024-01-07T07:37:41.571Z,100707.41
2024-01-07T07:40:13.108Z,100720.22
2024-01-07T07:42:42.516Z,100721.09
2024-01-07T07:45:12.442Z,100719.38
2024-01-07T07:47:46.195Z,100717.66
2024-01-07T07:50:15.579Z,100721.91
2024-01-07T07:52:45.896Z,100721.91
2024-01-07T07:55:14.776Z,100727.06
2024-01-07T07:57:43.940Z,100736.44
2024-01-07T08:00:14.968Z,100718.47
2024-01-07T08:02:45.775Z,100735.59
2024-01-07T08:05:15.260Z,100735.59
2024-01-07T08:07:44.742Z,100732.19
2024-01-07T08:10:13.759Z,100738.22
2024-01-07T08:12:42.912Z,100734.78
2024-01-07T08:15:12.464Z,100748.44
2024-01-07T08:17:41.787Z,100746.72
2024-01-07T08:20:13.983Z,100739.03
2024-01-07T08:22:43.147Z,100751.88
2024-01-07T08:25:12.521Z,100755.28
2024-01-07T08:27:43.550Z,100757.84
2024-01-07T08:30:14.910Z,100756.16
2024-01-07T08:32:44.762Z,100753.59
2024-01-07T08:35:17.051Z,100757.00
2024-01-07T08:37:47.662Z,100759.56
2024-01-07T08:40:18.277Z,100758.72
2024-01-07T08:42:47.505Z,100753.56
2024-01-07T08:45:16.735Z,100757.84
2024-01-07T08:47:46.267Z,100756.13
2024-01-07T08:50:16.806Z,100740.72
2024-01-07T08:52:47.652Z,100759.56
2024-01-07T08:55:16.913Z,100763.84
2024-01-07T08:57:50.387Z,100769.81
2024-01-07T09:00:20.696Z,100772.41
2024-01-07T09:02:49.975Z,100773.28
2024-01-07T09:05:20.414Z,100775.84
2024-01-07T09:07:49.471Z,100777.56
2024-01-07T09:10:20.176Z,100766.41
2024-01-07T09:12:50.947Z,100766.44
2024-01-07T09:15:22.139Z,100769.88
2024-01-07T09:17:51.417Z,100771.56
2024-01-07T09:20:21.756Z,100780.09
2024-01-07T09:22:50.991Z,100779.22
2024-01-07T09:25:20.052Z,100780.09
2024-01-07T09:27:49.276Z,100776.69
2024-01-07T09:30:18.930Z,100778.41
2024-01-07T09:32:48.022Z,100770.69
2024-01-07T09:35:17.127Z,100768.91
2024-01-07T09:37:47.592Z,100765.56
2024-01-07T09:40:20.906Z,100761.28
2024-01-07T09:42:50.521Z,100762.13
2024-01-07T09:45:23.547Z,100769.84
2024-01-07T09:47:52.974Z,100754.41
2024-01-07T09:50:22.117Z,100757.78
2024-01-07T09:52:59.156Z,100762.09
2024-01-07T09:55:36.339Z,100751.75
2024-01-07T09:58:06.232Z,100760.31
2024-01-07T10:00:35.905Z,100759.50
2024-01-07T10:03:05.578Z,100767.22
2024-01-07T10:05:34.624Z,100768.03
2024-01-07T10:08:05.607Z,100763.81
2024-01-07T10:10:37.388Z,100766.38
2024-01-07T10:13:06.646Z,100767.25
2024-01-07T10:15:35.590Z,100768.09
2024-01-07T10:18:07.538Z,100756.06
2024-01-07T10:20:36.961Z,100760.41
2024-01-07T10:23:09.123Z,100766.38
2024-01-07T10:25:38.812Z,100769.00
2024-01-07T10:28:07.926Z,100757.81
2024-01-07T10:30:36.869Z,100766.38
2024-01-07T10:33:07.506Z,100761.19
2024-01-07T10:35:39.950Z,100756.06
2024-01-07T10:38:10.584Z,100759.50
2024-01-07T10:40:41.075Z,100756.94
2024-01-07T10:43:11.291Z,100750.16
2024-01-07T10:45:40.344Z,100762.97
2024-01-07T10:48:13.008Z,100763.84
2024-01-07T10:50:43.720Z,100756.97
2024-01-07T10:53:20.995Z,100760.41
2024-01-07T10:56:00.757Z,100756.94
2024-01-07T10:58:30.325Z,100764.66
2024-01-07T11:01:01.301Z,100766.38
2024-01-07T11:03:40.727Z,100765.53
2024-01-07T11:06:22.557Z,100768.94
2024-01-07T11:09:01.277Z,100768.09
2024-01-07T11:11:42.552Z,100773.25
2024-01-07T11:14:38.808Z,100768.88
2024-01-07T11:17:08.513Z,100766.28
2024-01-07T11:19:38.535Z,100762.88
2024-01-07T11:22:29.591Z,100760.31
2024-01-07T11:25:02.979Z,100762.03
2024-01-07T11:27:33.588Z,100745.78
2024-01-07T11:30:11.234Z,100753.47
2024-01-07T11:32:42.164Z,100755.22
2024-01-07T11:35:11.516Z,100750.91
2024-01-07T11:37:40.279Z,100752.63
2024-01-07T11:40:12.754Z,100754.38
2024-01-07T11:42:41.749Z,100750.06
2024-01-07T11:45:12.229Z,100762.09
2024-01-07T11:47:41.214Z,100762.03
2024-01-07T11:50:10.820Z,100757.78
2024-01-07T11:52:40.371Z,100757.75
2024-01-07T11:55:12.018Z,100750.88
2024-01-07T11:57:40.861Z,100766.28
2024-01-07T12:00:11.782Z,100761.19
2024-01-07T12:02:43.414Z,100763.78
2024-01-07T12:05:14.115Z,100763.75
2024-01-07T12:07:43.513Z,100762.94
2024-01-07T12:10:15.350Z,100762.09
2024-01-07T12:12:44.960Z,100760.34
2024-01-07T12:15:15.940Z,100756.09
2024-01-07T12:17:45.253Z,100753.53
2024-01-07T12:20:14.389Z,100759.56
2024-01-07T12:22:43.190Z,100757.84
2024-01-07T12:25:13.964Z,100764.69
2024-01-07T12:27:44.802Z,100763.00
2024-01-07T12:30:15.166Z,100768.94
2024-01-07T12:32:43.148Z,100774.97
2024-01-07T12:35:12.583Z,100760.41
2024-01-07T12:37:41.530Z,100778.41
2024-01-07T12:40:14.047Z,100772.44
2024-01-07T12:42:46.294Z,100769.00
2024-01-07T12:45:16.828Z,100776.72
2024-01-07T12:47:46.980Z,100772.44
2024-01-07T12:50:17.159Z,100772.44
2024-01-07T12:52:46.760Z,100783.56
2024-01-07T12:55:17.372Z,100786.13
2024-01-07T12:57:46.390Z,100786.16
2024-01-07T13:00:16.924Z,100784.41
2024-01-07T13:02:46.005Z,100786.13
2024-01-07T13:05:15.908Z,100781.03
2024-01-07T13:07:45.206Z,100792.97
2024-01-07T13:10:14.527Z,100798.13
2024-01-07T13:12:48.991Z,100801.53
2024-01-07T13:15:20.131Z,100787.00
2024-01-07T13:17:49.470Z,100805.84
2024-01-07T13:20:21.409Z,100804.13
2024-01-07T13:22:50.538Z,100810.97
2024-01-07T13:25:19.909Z,100805.84
2024-01-07T13:27:50.238Z,100809.25
2024-01-07T13:30:19.714Z,100799.84
2024-01-07T13:32:50.879Z,100811.81
2024-01-07T13:35:20.236Z,100802.41
2024-01-07T13:37:49.150Z,100810.97
2024-01-07T13:40:20.390Z,100810.97
2024-01-07T13:42:52.493Z,100814.38
2024-01-07T13:45:23.904Z,100812.69
2024-01-07T13:47:52.933Z,100819.53
2024-01-07T13:50:22.181Z,100810.94
2024-01-07T13:52:51.138Z,100816.97
2024-01-07T13:55:20.753Z,100819.53
2024-01-07T13:57:51.177Z,100818.69
2024-01-07T14:00:20.671Z,100825.53
2024-01-07T14:02:50.577Z,100836.66
2024-01-07T14:05:20.812Z,100837.47
2024-01-07T14:07:49.953Z,100834.03
2024-01-07T14:10:21.004Z,100833.19
2024-01-07T14:12:51.322Z,100837.41
2024-01-07T14:15:20.541Z,100847.72
2024-01-07T14:17:50.364Z,100845.97
2024-01-07T14:20:19.568Z,100849.41
2024-01-07T14:22:48.403Z,100855.38
2024-01-07T14:25:17.814Z,100851.94
2024-01-07T14:27:47.193Z,100852.81
2024-01-07T14:30:18.170Z,100845.13
2024-01-07T14:32:47.036Z,100847.75
2024-01-07T14:35:16.388Z,100847.75
2024-01-07T14:37:45.522Z,100855.44
2024-01-07T14:40:15.124Z,100852.03
2024-01-07T14:42:45.143Z,100846.88
2024-01-07T14:45:14.353Z,100853.72
2024-01-07T14:47:44.709Z,100853.69
2024-01-07T14:50:15.746Z,100861.28
2024-01-07T14:52:44.672Z,100862.22
2024-01-07T14:55:14.319Z,100865.69
2024-01-07T14:57:43.418Z,100873.34
2024-01-07T15:00:13.279Z,100868.13
2024-01-07T15:02:43.506Z,100873.34
2024-01-07T15:05:12.918Z,100869.97
2024-01-07T15:07:42.136Z,100873.41
2024-01-07T15:10:11.692Z,100875.03
2024-01-07T15:12:45.320Z,100881.03
2024-01-07T15:15:20.068Z,100880.09
2024-01-07T15:17:50.562Z,100886.03
2024-01-07T15:20:19.894Z,100886.81
2024-01-07T15:22:50.285Z,100894.50
2024-01-07T15:25:21.278Z,100888.56
2024-01-07T15:27:50.271Z,100894.50
2024-01-07T15:30:19.703Z,100887.72
2024-01-07T15:32:50.302Z,100895.47
2024-01-07T15:35:19.609Z,100900.53
2024-01-07T15:37:50.019Z,100897.88
2024-01-07T15:40:19.619Z,100902.13
2024-01-07T15:42:49.035Z,100907.84
2024-01-07T15:45:18.413Z,100910.56
2024-01-07T15:47:48.011Z,100920.63
2024-01-07T15:50:18.749Z,100918.88
2024-01-07T15:52:50.083Z,100914.72
2024-01-07T15:55:20.115Z,100924.88
2024-01-07T15:57:49.407Z,100925.59
2024-01-07T16:00:19.872Z,100920.50
2024-01-07T16:02:48.978Z,100917.00
2024-01-07T16:05:19.786Z,100925.75
2024-01-07T16:07:49.129Z,100936.94
2024-01-07T16:10:18.528Z,100931.88
2024-01-07T16:12:47.553Z,100943.00
2024-01-07T16:15:16.995Z,100945.56
2024-01-07T16:17:46.197Z,100940.34
2024-01-07T16:20:15.728Z,100938.66
2024-01-07T16:22:46.227Z,100945.47
2024-01-07T16:25:15.559Z,100949.53
2024-01-07T16:27:44.572Z,100953.91
2024-01-07T16:30:14.725Z,100950.31
2024-01-07T16:32:45.793Z,100958.94
2024-01-07T16:35:14.959Z,100954.56
2024-01-07T16:37:45.089Z,100954.63
2024-01-07T16:40:14.501Z,100959.91
2024-01-07T16:42:44.910Z,100962.34
2024-01-07T16:45:14.691Z,100968.28
2024-01-07T16:47:43.583Z,100970.88
2024-01-07T16:50:21.839Z,100973.34
2024-01-07T16:52:55.261Z,100972.53
2024-01-07T16:55:24.554Z,100979.50
2024-01-07T16:57:53.787Z,100973.50
2024-01-07T17:00:24.326Z,100988.81
2024-01-07T17:02:53.278Z,100982.50
2024-01-07T17:05:22.617Z,100980.84
2024-01-07T17:07:51.428Z,100996.09
2024-01-07T17:10:22.590Z,100989.28
2024-01-07T17:12:51.422Z,100998.63
2024-01-07T17:15:21.829Z,101002.66
2024-01-07T17:17:51.743Z,101005.88
2024-01-07T17:20:21.383Z,101011.22
2024-01-07T17:22:50.270Z,101007.34
2024-01-07T17:25:21.046Z,101011.97
2024-01-07T17:27:51.157Z,101023.09
2024-01-07T17:30:20.519Z,101020.56
2024-01-07T17:32:53.227Z,101014.97
2024-01-07T17:35:26.043Z,101024.69
2024-01-07T17:37:54.869Z,101020.53
2024-01-07T17:40:25.518Z,101022.00
2024-01-07T17:42:54.958Z,101033.28
2024-01-07T17:45:24.995Z,101043.25
2024-01-07T17:47:54.452Z,101035.41
2024-01-07T17:50:23.895Z,101042.13
2024-01-07T17:52:52.842Z,101046.94
2024-01-07T17:55:21.912Z,101029.28
2024-01-07T17:57:52.476Z,101038.69
2024-01-07T18:00:23.903Z,101055.25
2024-01-07T18:02:52.891Z,101053.88
2024-01-07T18:05:22.333Z,101058.78
2024-01-07T18:07:51.482Z,101059.88
2024-01-07T18:10:20.851Z,101064.88
2024-01-07T18:12:51.300Z,101064.19
2024-01-07T18:15:20.577Z,101065.50
2024-01-07T18:17:49.695Z,101076.88
2024-01-07T18:20:19.568Z,101085.47
2024-01-07T18:22:49.155Z,101077.91
2024-01-07T18:25:18.607Z,101088.03
2024-01-07T18:27:47.675Z,101084.31
2024-01-07T18:30:18.333Z,101087.16
2024-01-07T18:32:47.402Z,101083.38
2024-01-07T18:35:20.891Z,101086.19
2024-01-07T18:37:51.743Z,101087.94
2024-01-07T18:40:21.508Z,101095.69
2024-01-07T18:42:50.466Z,101101.53
2024-01-07T18:45:24.037Z,101092.88
2024-01-07T18:47:53.257Z,101097.84
2024-01-07T18:50:22.416Z,101090.88
2024-01-07T18:52:51.784Z,101089.16
2024-01-07T18:55:21.553Z,101097.06
2024-01-07T18:57:50.854Z,101092.72
2024-01-07T19:00:21.767Z,101100.31
2024-01-07T19:02:50.685Z,101101.81
2024-01-07T19:05:20.217Z,101110.31
2024-01-07T19:07:49.415Z,101104.03
2024-01-07T19:10:18.945Z,101114.28
2024-01-07T19:12:47.854Z,101117.13
2024-01-07T19:15:18.770Z,101125.19
2024-01-07T19:17:50.600Z,101121.06
2024-01-07T19:20:20.465Z,101122.41
2024-01-07T19:22:49.390Z,101135.19
2024-01-07T19:25:18.539Z,101135.34
2024-01-07T19:27:47.456Z,101136.22
2024-01-07T19:30:16.730Z,101130.50
2024-01-07T19:32:46.784Z,101141.75
2024-01-07T19:35:18.187Z,101153.03
2024-01-07T19:37:47.184Z,101148.16
2024-01-07T19:40:16.896Z,101145.94
2024-01-07T19:42:47.112Z,101153.50
2024-01-07T19:45:16.301Z,101154.59
2024-01-07T19:47:45.234Z,101156.63
2024-01-07T19:50:14.988Z,101154.16
2024-01-07T19:52:47.387Z,101164.59
2024-01-07T19:55:16.931Z,101161.38
2024-01-07T19:57:46.206Z,101164.69
2024-01-07T20:00:16.073Z,101165.78
2024-01-07T20:02:50.073Z,101186.19
2024-01-07T20:05:20.198Z,101184.47
2024-01-07T20:07:50.570Z,101168.00
2024-01-07T20:10:19.946Z,101186.34
2024-01-07T20:12:49.397Z,101191.00
2024-01-07T20:15:20.012Z,101192.94
2024-01-07T20:17:48.867Z,101185.19
2024-01-07T20:20:18.557Z,101190.47
2024-01-07T20:22:47.546Z,101198.38
2024-01-07T20:25:18.283Z,101190.53
2024-01-07T20:27:47.177Z,101196.31
2024-01-07T20:30:17.096Z,101201.47
2024-01-07T20:32:46.267Z,101199.94
2024-01-07T20:35:15.596Z,101197.84
2024-01-07T20:37:46.550Z,101206.66
2024-01-07T20:40:17.426Z,101211.50
2024-01-07T20:42:46.393Z,101215.53
2024-01-07T20:45:15.796Z,101213.66
2024-01-07T20:47:46.517Z,101209.81
2024-01-07T20:50:16.022Z,101192.72
2024-01-07T20:52:47.130Z,101218.63
2024-01-07T20:55:17.866Z,101219.34
2024-01-07T20:57:47.977Z,101220.94
2024-01-07T21:00:18.948Z,101224.75
2024-01-07T21:02:48.431Z,101218.78
2024-01-07T21:05:20.357Z,101227.16
2024-01-07T21:07:49.960Z,101228.03
2024-01-07T21:10:20.650Z,101223.75
2024-01-07T21:12:49.756Z,101225.56
2024-01-07T21:15:19.133Z,101224.28
2024-01-07T21:17:48.156Z,101235.97
2024-01-07T21:20:17.700Z,101241.09
2024-01-07T21:22:46.938Z,101233.44
2024-01-07T21:25:17.759Z,101234.47
2024-01-07T21:27:48.130Z,101241.88
2024-01-07T21:30:17.874Z,101239.31
2024-01-07T21:32:46.994Z,101235.28
2024-01-07T21:35:17.783Z,101241.84
2024-01-07T21:37:47.148Z,101238.69
2024-01-07T21:40:17.114Z,101251.63
2024-01-07T21:42:47.305Z,101257.69
2024-01-07T21:45:16.447Z,101255.41
2024-01-07T21:47:45.339Z,101261.47
2024-01-07T21:50:15.431Z,101255.44
2024-01-07T21:52:55.069Z,101265.66
2024-01-07T21:55:24.761Z,101256.25
2024-01-07T21:57:55.972Z,101263.47
2024-01-07T22:00:25.260Z,101268.59
2024-01-07T22:02:54.189Z,101264.22
2024-01-07T22:05:23.468Z,101264.34
2024-01-07T22:07:52.382Z,101266.88
2024-01-07T22:10:21.504Z,101277.94
2024-01-07T22:12:50.405Z,101272.16
2024-01-07T22:15:20.932Z,101277.91
2024-01-07T22:17:49.854Z,101271.13
2024-01-07T22:20:19.220Z,101294.19
2024-01-07T22:22:48.193Z,101286.91
2024-01-07T22:25:17.604Z,101288.88
2024-01-07T22:27:46.515Z,101288.25
2024-01-07T22:30:16.482Z,101292.59
2024-01-07T22:32:47.758Z,101297.94
2024-01-07T22:35:17.116Z,101295.41
2024-01-07T22:37:46.004Z,101285.97
2024-01-07T22:40:15.312Z,101296.19
2024-01-07T22:42:44.218Z,101304.63
2024-01-07T22:45:13.553Z,101301.56
2024-01-07T22:47:42.504Z,101308.03
2024-01-07T22:50:13.152Z,101314.88
2024-01-07T22:52:41.956Z,101311.63
2024-01-07T22:55:11.707Z,101313.78
2024-01-07T22:57:40.630Z,101316.97
2024-01-07T23:00:15.981Z,101313.34
2024-01-07T23:02:45.052Z,101328.34
2024-01-07T23:05:16.015Z,101329.66
2024-01-07T23:07:44.978Z,101329.56
2024-01-07T23:10:15.770Z,101335.06
2024-01-07T23:12:45.470Z,101310.97
2024-01-07T23:15:16.149Z,101323.19
2024-01-07T23:17:45.536Z,101332.81
2024-01-07T23:20:16.666Z,101336.03
2024-01-07T23:22:45.521Z,101341.16
2024-01-07T23:25:14.702Z,101330.13
2024-01-07T23:27:43.614Z,101330.19
2024-01-07T23:30:13.914Z,101331.81
2024-01-07T23:32:42.943Z,101328.16
2024-01-07T23:35:12.620Z,101329.91
2024-01-07T23:37:42.914Z,101328.38
2024-01-07T23:40:12.922Z,101334.53
2024-01-07T23:42:41.816Z,101338.94
2024-01-07T23:45:11.242Z,101332.31
2024-01-07T23:47:40.337Z,101341.81
2024-01-07T23:50:10.413Z,101347.00
2024-01-07T23:52:42.344Z,101345.91
2024-01-07T23:55:11.441Z,101349.56
2024-01-07T23:57:40.635Z,101331.66
